sensor_id;sensor_type;location;lat;lon;timestamp;pressure;altitude;pressure_sealevel;temperature;humidity
42125;BME280;27787;44.594;11.046;2023-05-12T00:01:01;100681.38;;;13.73;100.00
42125;BME280;27787;44.594;11.046;2023-05-12T00:04:31;100692.00;;;13.70;100.00
42125;BME280;27787;44.594;11.046;2023-05-12T00:07:37;100682.28;;;13.67;100.00
42125;BME280;27787;44.594;11.046;2023-05-12T00:10:53;100673.47;;;13.64;100.00
42125;BME280;27787;44.594;11.046;2023-05-12T00:14:19;100682.34;;;13.58;100.00
42125;BME280;27787;44.594;11.046;2023-05-12T00:17:22;100676.19;;;13.54;100.00
42125;BME280;27787;44.594;11.046;2023-05-12T00:20:17;100667.34;;;13.51;100.00
42125;BME280;27787;44.594;11.046;2023-05-12T00:23:05;100666.47;;;13.50;100.00
42125;BME280;27787;44.594;11.046;2023-05-12T00:26:01;100659.41;;;13.49;100.00
42125;BME280;27787;44.594;11.046;2023-05-12T00:28:50;100656.75;;;13.51;100.00
42125;BME280;27787;44.594;11.046;2023-05-12T00:31:38;100657.59;;;13.53;100.00
42125;BME280;27787;44.594;11.046;2023-05-12T00:34:43;100666.44;;;13.56;100.00
42125;BME280;27787;44.594;11.046;2023-05-12T00:37:53;100661.94;;;13.66;100.00
42125;BME280;27787;44.594;11.046;2023-05-12T00:40:44;100661.03;;;13.72;100.00
42125;BME280;27787;44.594;11.046;2023-05-12T00:43:44;100672.53;;;13.72;100.00
42125;BME280;27787;44.594;11.046;2023-05-12T00:47:21;100671.63;;;13.73;100.00
42125;BME280;27787;44.594;11.046;2023-05-12T00:50:25;100672.47;;;13.78;100.00
42125;BME280;27787;44.594;11.046;2023-05-12T00:53:42;100672.41;;;13.86;100.00
42125;BME280;27787;44.594;11.046;2023-05-12T00:56:40;100676.81;;;13.90;100.00
42125;BME280;27787;44.594;11.046;2023-05-12T00:59:49;100670.63;;;13.90;100.00
42125;BME280;27787;44.594;11.046;2023-05-12T01:03:03;100668.88;;;13.87;100.00
42125;BME280;27787;44.594;11.046;2023-05-12T01:06:21;100668.88;;;13.85;100.00
42125;BME280;27787;44.594;11.046;2023-05-12T01:09:39;100668.81;;;13.92;100.00
42125;BME280;27787;44.594;11.046;2023-05-12T01:12:59;100673.22;;;13.97;100.00
42125;BME280;27787;44.594;11.046;2023-05-12T01:16:25;100671.41;;;14.02;100.00
42125;BME280;27787;44.594;11.046;2023-05-12T01:23:14;100666.91;;;14.12;100.00
42125;BME280;27787;44.594;11.046;2023-05-12T01:26:29;100673.06;;;14.15;100.00
42125;BME280;27787;44.594;11.046;2023-05-12T01:29:34;100670.38;;;14.17;100.00
42125;BME280;27787;44.594;11.046;2023-05-12T01:32:46;100673.91;;;14.19;100.00
42125;BME280;27787;44.594;11.046;2023-05-12T01:35:54;100668.66;;;14.13;100.00
42125;BME280;27787;44.594;11.046;2023-05-12T01:39:12;100655.47;;;14.04;100.00
42125;BME280;27787;44.594;11.046;2023-05-12T01:42:05;100667.94;;;13.94;100.00
42125;BME280;27787;44.594;11.046;2023-05-12T01:44:51;100658.28;;;13.85;100.00
42125;BME280;27787;44.594;11.046;2023-05-12T01:47:41;100661.84;;;13.78;100.00
42125;BME280;27787;44.594;11.046;2023-05-12T01:50:30;100661.88;;;13.75;100.00
42125;BME280;27787;44.594;11.046;2023-05-12T01:53:33;100660.97;;;13.81;100.00
42125;BME280;27787;44.594;11.046;2023-05-12T01:56:23;100667.16;;;13.81;100.00
42125;BME280;27787;44.594;11.046;2023-05-12T01:59:27;100662.75;;;13.80;100.00
42125;BME280;27787;44.594;11.046;2023-05-12T02:02:45;100663.56;;;13.87;100.00
42125;BME280;27787;44.594;11.046;2023-05-12T02:09:38;100658.28;;;13.85;100.00
42125;BME280;27787;44.594;11.046;2023-05-12T02:12:25;100662.75;;;13.77;100.00
42125;BME280;27787;44.594;11.046;2023-05-12T02:15:35;100663.72;;;13.69;100.00
42125;BME280;27787;44.594;11.046;2023-05-12T02:18:41;100658.44;;;13.61;100.00
42125;BME280;27787;44.594;11.046;2023-05-12T02:21:46;100657.56;;;13.61;100.00
42125;BME280;27787;44.594;11.046;2023-05-12T02:24:47;100653.16;;;13.61;100.00
42125;BME280;27787;44.594;11.046;2023-05-12T02:27:44;100652.22;;;13.64;100.00
42125;BME280;27787;44.594;11.046;2023-05-12T02:30:36;100654.88;;;13.64;100.00
42125;BME280;27787;44.594;11.046;2023-05-12T02:33:37;100654.03;;;13.62;100.00
42125;BME280;27787;44.594;11.046;2023-05-12T02:36:51;100657.59;;;13.59;100.00
42125;BME280;27787;44.594;11.046;2023-05-12T02:40:17;100662.94;;;13.54;100.00
42125;BME280;27787;44.594;11.046;2023-05-12T02:43:32;100656.75;;;13.51;100.00
42125;BME280;27787;44.594;11.046;2023-05-12T02:46:52;100658.50;;;13.52;100.00
42125;BME280;27787;44.594;11.046;2023-05-12T02:49:55;100662.03;;;13.51;100.00
42125;BME280;27787;44.594;11.046;2023-05-12T02:53:00;100660.28;;;13.50;100.00
42125;BME280;27787;44.594;11.046;2023-05-12T02:56:28;100657.69;;;13.44;100.00
42125;BME280;27787;44.594;11.046;2023-05-12T02:59:34;100654.19;;;13.36;100.00
42125;BME280;27787;44.594;11.046;2023-05-12T03:02:58;100656.91;;;13.23;100.00
42125;BME280;27787;44.594;11.046;2023-05-12T03:05:48;100663.09;;;13.13;100.00
42125;BME280;27787;44.594;11.046;2023-05-12T03:08:40;100664.91;;;13.07;100.00
42125;BME280;27787;44.594;11.046;2023-05-12T03:11:52;100658.69;;;13.11;100.00
42125;BME280;27787;44.594;11.046;2023-05-12T03:15:26;100659.59;;;13.10;100.00
42125;BME280;27787;44.594;11.046;2023-05-12T03:18:38;100649.88;;;13.10;100.00
42125;BME280;27787;44.594;11.046;2023-05-12T03:22:14;100648.09;;;13.15;100.00
42125;BME280;27787;44.594;11.046;2023-05-12T03:26:09;100659.56;;;13.13;100.00
42125;BME280;27787;44.594;11.046;2023-05-12T03:30:02;100657.78;;;13.15;100.00
42125;BME280;27787;44.594;11.046;2023-05-12T03:34:05;100662.22;;;13.17;100.00
42125;BME280;27787;44.594;11.046;2023-05-12T03:38:16;100656.06;;;13.09;100.00
42125;BME280;27787;44.594;11.046;2023-05-12T03:41:31;100652.53;;;13.09;100.00
42125;BME280;27787;44.594;11.046;2023-05-12T03:44:53;100642.78;;;13.14;100.00
42125;BME280;27787;44.594;11.046;2023-05-12T03:48:40;100641.91;;;13.13;100.00
42125;BME280;27787;44.594;11.046;2023-05-12T03:52:03;100636.59;;;13.12;100.00
42125;BME280;27787;44.594;11.046;2023-05-12T03:55:31;100643.69;;;13.11;100.00
42125;BME280;27787;44.594;11.046;2023-05-12T04:02:05;100639.28;;;13.10;100.00
42125;BME280;27787;44.594;11.046;2023-05-12T04:09:11;100642.78;;;13.14;100.00
42125;BME280;27787;44.594;11.046;2023-05-12T04:12:10;100639.25;;;13.16;100.00
42125;BME280;27787;44.594;11.046;2023-05-12T04:15:43;100662.22;;;13.17;100.00
42125;BME280;27787;44.594;11.046;2023-05-12T04:19:10;100657.78;;;13.15;100.00
42125;BME280;27787;44.594;11.046;2023-05-12T04:22:53;100654.28;;;13.11;100.00
42125;BME280;27787;44.594;11.046;2023-05-12T04:25:44;100656.97;;;13.05;100.00
42125;BME280;27787;44.594;11.046;2023-05-12T04:29:13;100652.63;;;12.90;100.00
42125;BME280;27787;44.594;11.046;2023-05-12T04:32:45;100650.91;;;12.77;100.00
42125;BME280;27787;44.594;11.046;2023-05-12T04:35:35;100653.53;;;12.73;100.00
42125;BME280;27787;44.594;11.046;2023-05-12T04:38:24;100650.91;;;12.71;100.00
42125;BME280;27787;44.594;11.046;2023-05-12T04:41:34;100659.72;;;12.73;100.00
42125;BME280;27787;44.594;11.046;2023-05-12T04:44:29;100672.06;;;12.82;100.00
42125;BME280;27787;44.594;11.046;2023-05-12T04:47:53;100680.84;;;12.94;100.00
42125;BME280;27787;44.594;11.046;2023-05-12T04:51:03;100680.81;;;13.05;100.00
42125;BME280;27787;44.594;11.046;2023-05-12T04:54:15;100680.78;;;13.11;100.00
42125;BME280;27787;44.594;11.046;2023-05-12T04:57:04;100679.91;;;13.15;100.00
42125;BME280;27787;44.594;11.046;2023-05-12T04:59:49;100677.25;;;13.17;100.00
42125;BME280;27787;44.594;11.046;2023-05-12T05:02:33;100680.78;;;13.19;100.00
42125;BME280;27787;44.594;11.046;2023-05-12T05:05:17;100682.53;;;13.21;100.00
42125;BME280;27787;44.594;11.046;2023-05-12T05:08:02;100677.19;;;13.27;100.00
42125;BME280;27787;44.594;11.046;2023-05-12T05:10:47;100678.06;;;13.33;100.00
42125;BME280;27787;44.594;11.046;2023-05-12T05:13:31;100679.84;;;13.34;100.00
42125;BME280;27787;44.594;11.046;2023-05-12T05:16:16;100678.06;;;13.33;100.00
42125;BME280;27787;44.594;11.046;2023-05-12T05:19:00;100671.00;;;13.32;100.00
42125;BME280;27787;44.594;11.046;2023-05-12T05:21:44;100677.19;;;13.32;100.00
42125;BME280;27787;44.594;11.046;2023-05-12T05:24:29;100673.69;;;13.30;100.00
42125;BME280;27787;44.594;11.046;2023-05-12T05:27:13;100664.81;;;13.31;100.00
42125;BME280;27787;44.594;11.046;2023-05-12T05:29:58;100668.34;;;13.32;100.00
42125;BME280;27787;44.594;11.046;2023-05-12T05:32:42;100675.38;;;13.37;100.00
42125;BME280;27787;44.594;11.046;2023-05-12T05:35:36;100671.78;;;13.50;100.00
42125;BME280;27787;44.594;11.046;2023-05-12T05:38:20;100667.31;;;13.54;100.00
42125;BME280;27787;44.594;11.046;2023-05-12T05:41:05;100669.97;;;13.52;100.00
42125;BME280;27787;44.594;11.046;2023-05-12T05:43:49;100670.91;;;13.47;100.00
42125;BME280;27787;44.594;11.046;2023-05-12T05:46:34;100674.41;;;13.52;100.00
42125;BME280;27787;44.594;11.046;2023-05-12T05:49:18;100684.13;;;13.57;100.00
42125;BME280;27787;44.594;11.046;2023-05-12T05:52:03;100690.31;;;13.58;100.00
42125;BME280;27787;44.594;11.046;2023-05-12T05:54:47;100684.94;;;13.64;100.00
42125;BME280;27787;44.594;11.046;2023-05-12T05:57:34;100700.81;;;13.73;100.00
42125;BME280;27787;44.594;11.046;2023-05-12T06:00:19;100700.75;;;13.79;100.00
42125;BME280;27787;44.594;11.046;2023-05-12T06:03:08;100704.25;;;13.86;100.00
42125;BME280;27787;44.594;11.046;2023-05-12T06:05:56;100708.63;;;13.95;100.00
42125;BME280;27787;44.594;11.046;2023-05-12T06:11:59;100715.59;;;14.09;100.00
42125;BME280;27787;44.594;11.046;2023-05-12T06:14:42;100715.56;;;14.12;100.00
42125;BME280;27787;44.594;11.046;2023-05-12T06:17:27;100723.53;;;14.11;100.00
42125;BME280;27787;44.594;11.046;2023-05-12T06:20:11;100716.44;;;14.13;100.00
42125;BME280;27787;44.594;11.046;2023-05-12T06:22:58;100723.47;;;14.17;100.00
42125;BME280;27787;44.594;11.046;2023-05-12T06:25:43;100728.78;;;14.17;100.00
42125;BME280;27787;44.594;11.046;2023-05-12T06:28:27;100725.25;;;14.21;100.00
42125;BME280;27787;44.594;11.046;2023-05-12T06:31:11;100724.28;;;14.27;100.00
42125;BME280;27787;44.594;11.046;2023-05-12T06:33:56;100723.34;;;14.37;100.00
42125;BME280;27787;44.594;11.046;2023-05-12T06:36:40;100725.94;;;14.44;100.00
42125;BME280;27787;44.594;11.046;2023-05-12T06:39:24;100724.13;;;14.51;100.00
42125;BME280;27787;44.594;11.046;2023-05-12T06:42:08;100722.25;;;14.61;100.00
42125;BME280;27787;44.594;11.046;2023-05-12T06:45:01;100720.41;;;14.67;100.00
42125;BME280;27787;44.594;11.046;2023-05-12T06:47:49;100724.78;;;14.73;100.00
42125;BME280;27787;44.594;11.046;2023-05-12T06:50:39;100711.53;;;14.71;99.78
42125;BME280;27787;44.594;11.046;2023-05-12T06:53:28;100728.34;;;14.70;99.47
42125;BME280;27787;44.594;11.046;2023-05-12T06:56:30;100722.13;;;14.73;99.54
42125;BME280;27787;44.594;11.046;2023-05-12T06:59:19;100716.69;;;14.82;99.90
42125;BME280;27787;44.594;11.046;2023-05-12T07:02:22;100716.56;;;14.94;99.44
42125;BME280;27787;44.594;11.046;2023-05-12T07:05:35;100707.66;;;15.01;97.14
42125;BME280;27787;44.594;11.046;2023-05-12T07:08:23;100713.03;;;14.94;96.06
42125;BME280;27787;44.594;11.046;2023-05-12T07:11:15;100711.25;;;14.94;96.73
42125;BME280;27787;44.594;11.046;2023-05-12T07:14:04;100714.78;;;14.98;96.13
42125;BME280;27787;44.594;11.046;2023-05-12T07:16:52;100720.94;;;15.01;95.33
42125;BME280;27787;44.594;11.046;2023-05-12T07:19:41;100711.19;;;15.00;93.80
42125;BME280;27787;44.594;11.046;2023-05-12T07:22:31;100726.25;;;15.01;93.73
42125;BME280;27787;44.594;11.046;2023-05-12T07:25:18;100724.50;;;15.00;93.71
42125;BME280;27787;44.594;11.046;2023-05-12T07:28:06;100725.28;;;15.07;93.90
42125;BME280;27787;44.594;11.046;2023-05-12T07:30:52;100722.41;;;15.27;94.89
42125;BME280;27787;44.594;11.046;2023-05-12T07:33:36;100726.50;;;15.52;94.76
42125;BME280;27787;44.594;11.046;2023-05-12T07:36:22;100729.78;;;15.73;92.57
42125;BME280;27787;44.594;11.046;2023-05-12T07:39:13;100725.13;;;15.87;90.97
42125;BME280;27787;44.594;11.046;2023-05-12T07:42:04;100726.75;;;15.99;89.85
42125;BME280;27787;44.594;11.046;2023-05-12T07:45:05;100718.50;;;16.14;90.07
42125;BME280;27787;44.594;11.046;2023-05-12T07:47:56;100713.06;;;16.21;88.39
42125;BME280;27787;44.594;11.046;2023-05-12T07:50:51;100712.91;;;16.31;87.47
42125;BME280;27787;44.594;11.046;2023-05-12T07:53:55;100707.59;;;16.31;85.94
42125;BME280;27787;44.594;11.046;2023-05-12T07:56:40;100715.50;;;16.35;86.06
42125;BME280;27787;44.594;11.046;2023-05-12T07:59:25;100715.41;;;16.41;86.05
42125;BME280;27787;44.594;11.046;2023-05-12T08:02:14;100710.88;;;16.46;86.61
42125;BME280;27787;44.594;11.046;2023-05-12T08:05:08;100704.50;;;16.53;86.30
42125;BME280;27787;44.594;11.046;2023-05-12T08:07:59;100715.03;;;16.61;86.13
42125;BME280;27787;44.594;11.046;2023-05-12T08:10:51;100706.19;;;16.59;83.94
42125;BME280;27787;44.594;11.046;2023-05-12T08:13:41;100705.25;;;16.62;83.91
42125;BME280;27787;44.594;11.046;2023-05-12T08:17:01;100710.47;;;16.66;82.97
42125;BME280;27787;44.594;11.046;2023-05-12T08:19:54;100709.66;;;16.67;81.58
42125;BME280;27787;44.594;11.046;2023-05-12T08:22:44;100710.53;;;16.68;80.80
42125;BME280;27787;44.594;11.046;2023-05-12T08:26:02;100719.38;;;16.70;80.78
42125;BME280;27787;44.594;11.046;2023-05-12T08:29:13;100721.09;;;16.72;81.05
42125;BME280;27787;44.594;11.046;2023-05-12T08:32:04;100725.44;;;16.76;80.78
42125;BME280;27787;44.594;11.046;2023-05-12T08:34:53;100723.53;;;16.85;80.99
42125;BME280;27787;44.594;11.046;2023-05-12T08:37:40;100712.75;;;16.89;80.74
42125;BME280;27787;44.594;11.046;2023-05-12T08:40:37;100725.16;;;16.92;80.54
42125;BME280;27787;44.594;11.046;2023-05-12T08:43:35;100726.91;;;16.94;80.27
42125;BME280;27787;44.594;11.046;2023-05-12T08:46:27;100715.34;;;16.94;79.74
42125;BME280;27787;44.594;11.046;2023-05-12T08:49:41;100709.97;;;16.97;80.09
42125;BME280;27787;44.594;11.046;2023-05-12T08:52:37;100716.19;;;16.96;80.72
42125;BME280;27787;44.594;11.046;2023-05-12T08:55:22;100713.59;;;16.93;80.47
42125;BME280;27787;44.594;11.046;2023-05-12T08:58:14;100712.69;;;16.92;81.33
42125;BME280;27787;44.594;11.046;2023-05-12T09:00:59;100710.06;;;16.91;82.19
42125;BME280;27787;44.594;11.046;2023-05-12T09:03:44;100706.47;;;16.92;82.71
42125;BME280;27787;44.594;11.046;2023-05-12T09:06:28;100712.84;;;16.85;82.10
42125;BME280;27787;44.594;11.046;2023-05-12T09:09:22;100707.63;;;16.78;83.02
42125;BME280;27787;44.594;11.046;2023-05-12T09:12:10;100705.84;;;16.79;83.72
42125;BME280;27787;44.594;11.046;2023-05-12T09:15:03;100700.44;;;16.84;85.15
42125;BME280;27787;44.594;11.046;2023-05-12T09:17:51;100703.88;;;16.89;83.56
42125;BME280;27787;44.594;11.046;2023-05-12T09:20:43;100704.16;;;16.75;83.52
42125;BME280;27787;44.594;11.046;2023-05-12T09:23:29;100707.69;;;16.75;86.15
42125;BME280;27787;44.594;11.046;2023-05-12T09:26:21;100701.41;;;16.78;85.67
42125;BME280;27787;44.594;11.046;2023-05-12T09:29:08;100690.72;;;16.79;84.59
42125;BME280;27787;44.594;11.046;2023-05-12T09:31:55;100689.84;;;16.80;85.14
42125;BME280;27787;44.594;11.046;2023-05-12T09:34:42;100695.91;;;16.87;86.07
42125;BME280;27787;44.594;11.046;2023-05-12T09:37:31;100706.47;;;16.93;85.41
42125;BME280;27787;44.594;11.046;2023-05-12T09:40:20;100694.00;;;16.95;83.99
42125;BME280;27787;44.594;11.046;2023-05-12T09:43:05;100695.75;;;16.96;83.49
42125;BME280;27787;44.594;11.046;2023-05-12T09:45:50;100695.81;;;16.93;82.85
42125;BME280;27787;44.594;11.046;2023-05-12T09:48:36;100695.88;;;16.89;83.25
42125;BME280;27787;44.594;11.046;2023-05-12T09:51:22;100700.28;;;16.93;83.50
42125;BME280;27787;44.594;11.046;2023-05-12T09:54:08;100696.47;;;17.03;83.88
42125;BME280;27787;44.594;11.046;2023-05-12T09:56:56;100692.69;;;17.15;83.14
42125;BME280;27787;44.594;11.046;2023-05-12T09:59:42;100688.13;;;17.21;82.68
42125;BME280;27787;44.594;11.046;2023-05-12T10:02:30;100699.50;;;17.29;82.41
42125;BME280;27787;44.594;11.046;2023-05-12T10:05:19;100690.50;;;17.35;81.68
42125;BME280;27787;44.594;11.046;2023-05-12T10:08:06;100683.22;;;17.42;81.75
42125;BME280;27787;44.594;11.046;2023-05-12T10:10:58;100683.09;;;17.48;82.06
42125;BME280;27787;44.594;11.046;2023-05-12T10:13:46;100696.13;;;17.61;82.14
42125;BME280;27787;44.594;11.046;2023-05-12T10:17:00;100698.59;;;17.71;79.78
42125;BME280;27787;44.594;11.046;2023-05-12T10:19:51;100694.31;;;17.63;81.35
42125;BME280;27787;44.594;11.046;2023-05-12T10:22:44;100695.31;;;17.59;81.19
42125;BME280;27787;44.594;11.046;2023-05-12T10:25:29;100703.34;;;17.56;77.97
42125;BME280;27787;44.594;11.046;2023-05-12T10:28:14;100700.06;;;17.45;78.60
42125;BME280;27787;44.594;11.046;2023-05-12T10:30:59;100695.59;;;17.46;79.44
42125;BME280;27787;44.594;11.046;2023-05-12T10:33:43;100697.41;;;17.44;79.60
42125;BME280;27787;44.594;11.046;2023-05-12T10:36:45;100700.91;;;17.47;81.43
42125;BME280;27787;44.594;11.046;2023-05-12T10:39:30;100699.00;;;17.52;82.35
42125;BME280;27787;44.594;11.046;2023-05-12T10:42:22;100700.56;;;17.62;81.55
42125;BME280;27787;44.594;11.046;2023-05-12T10:45:16;100707.78;;;17.59;83.47
42125;BME280;27787;44.594;11.046;2023-05-12T10:48:06;100706.69;;;17.66;81.65
42125;BME280;27787;44.594;11.046;2023-05-12T10:50:53;100712.22;;;17.57;83.93
42125;BME280;27787;44.594;11.046;2023-05-12T10:53:37;100715.75;;;17.60;86.01
42125;BME280;27787;44.594;11.046;2023-05-12T10:56:28;100714.09;;;17.53;85.38
42125;BME280;27787;44.594;11.046;2023-05-12T10:59:13;100705.09;;;17.57;84.75
42125;BME280;27787;44.594;11.046;2023-05-12T11:02:17;100705.31;;;17.48;84.38
42125;BME280;27787;44.594;11.046;2023-05-12T11:05:05;100717.09;;;17.38;83.25
42125;BME280;27787;44.594;11.046;2023-05-12T11:07:53;100720.91;;;17.26;84.84
42125;BME280;27787;44.594;11.046;2023-05-12T11:10:40;100728.91;;;17.26;84.75
42125;BME280;27787;44.594;11.046;2023-05-12T11:13:25;100739.00;;;17.12;85.34
42125;BME280;27787;44.594;11.046;2023-05-12T11:16:11;100762.28;;;17.02;86.00
42125;BME280;27787;44.594;11.046;2023-05-12T11:19:05;100759.97;;;16.84;83.34
42125;BME280;27787;44.594;11.046;2023-05-12T11:21:49;100767.53;;;16.58;80.77
42125;BME280;27787;44.594;11.046;2023-05-12T11:24:35;100769.97;;;16.14;84.23
42125;BME280;27787;44.594;11.046;2023-05-12T11:27:21;100768.66;;;15.84;86.84
42125;BME280;27787;44.594;11.046;2023-05-12T11:30:06;100765.56;;;15.50;87.26
42125;BME280;27787;44.594;11.046;2023-05-12T11:33:01;100752.66;;;15.17;88.23
42125;BME280;27787;44.594;11.046;2023-05-12T11:35:45;100754.75;;;14.89;88.84
42125;BME280;27787;44.594;11.046;2023-05-12T11:38:30;100761.13;;;14.69;88.76
42125;BME280;27787;44.594;11.046;2023-05-12T11:41:25;100775.47;;;14.52;91.06
42125;BME280;27787;44.594;11.046;2023-05-12T11:49:53;100728.81;;;14.14;99.44
42125;BME280;27787;44.594;11.046;2023-05-12T11:52:38;100720.06;;;14.01;100.00
42125;BME280;27787;44.594;11.046;2023-05-12T11:55:23;100710.41;;;13.91;100.00
42125;BME280;27787;44.594;11.046;2023-05-12T11:58:07;100726.44;;;13.80;100.00
42125;BME280;27787;44.594;11.046;2023-05-12T12:00:52;100731.69;;;13.85;100.00
42125;BME280;27787;44.594;11.046;2023-05-12T12:03:45;100735.19;;;13.90;100.00
42125;BME280;27787;44.594;11.046;2023-05-12T12:06:42;100762.56;;;13.97;100.00
42125;BME280;27787;44.594;11.046;2023-05-12T12:09:35;100755.44;;;14.06;100.00
42125;BME280;27787;44.594;11.046;2023-05-12T12:12:20;100743.81;;;14.21;100.00
42125;BME280;27787;44.594;11.046;2023-05-12T12:15:04;100726.91;;;14.33;100.00
42125;BME280;27787;44.594;11.046;2023-05-12T12:17:50;100712.66;;;14.41;100.00
42125;BME280;27787;44.594;11.046;2023-05-12T12:20:35;100718.03;;;14.35;100.00
42125;BME280;27787;44.594;11.046;2023-05-12T12:23:19;100713.63;;;14.30;100.00
42125;BME280;27787;44.594;11.046;2023-05-12T12:26:06;100709.28;;;14.24;100.00
42125;BME280;27787;44.594;11.046;2023-05-12T12:28:51;100723.59;;;14.06;100.00
42125;BME280;27787;44.594;11.046;2023-05-12T12:31:35;100737.72;;;14.05;100.00
42125;BME280;27787;44.594;11.046;2023-05-12T12:34:19;100738.56;;;14.12;100.00
42125;BME280;27787;44.594;11.046;2023-05-12T12:37:03;100728.69;;;14.32;100.00
42125;BME280;27787;44.594;11.046;2023-05-12T12:39:48;100735.66;;;14.49;100.00
42125;BME280;27787;44.594;11.046;2023-05-12T12:42:33;100724.97;;;14.55;100.00
42125;BME280;27787;44.594;11.046;2023-05-12T12:45:18;100720.47;;;14.63;100.00
42125;BME280;27787;44.594;11.046;2023-05-12T12:48:05;100722.16;;;14.70;100.00
42125;BME280;27787;44.594;11.046;2023-05-12T12:50:52;100724.72;;;14.79;100.00
42125;BME280;27787;44.594;11.046;2023-05-12T12:53:36;100721.94;;;14.90;100.00
42125;BME280;27787;44.594;11.046;2023-05-12T12:56:21;100715.66;;;14.95;100.00
42125;BME280;27787;44.594;11.046;2023-05-12T12:59:05;100707.75;;;14.91;100.00
42125;BME280;27787;44.594;11.046;2023-05-12T13:01:49;100709.53;;;14.92;100.00
42125;BME280;27787;44.594;11.046;2023-05-12T13:04:34;100713.13;;;14.88;100.00
42125;BME280;27787;44.594;11.046;2023-05-12T13:07:17;100730.84;;;14.87;100.00
42125;BME280;27787;44.594;11.046;2023-05-12T13:10:02;100753.88;;;14.84;100.00
42125;BME280;27787;44.594;11.046;2023-05-12T13:12:46;100768.06;;;14.84;100.00
42125;BME280;27787;44.594;11.046;2023-05-12T13:15:30;100779.59;;;14.83;100.00
42125;BME280;27787;44.594;11.046;2023-05-12T13:18:15;100792.00;;;14.83;100.00
42125;BME280;27787;44.594;11.046;2023-05-12T13:20:59;100814.22;;;14.77;100.00
42125;BME280;27787;44.594;11.046;2023-05-12T13:23:43;100813.38;;;14.70;100.00
42125;BME280;27787;44.594;11.046;2023-05-12T13:26:27;100812.56;;;14.62;100.00
42125;BME280;27787;44.594;11.046;2023-05-12T13:29:11;100817.91;;;14.61;100.00
42125;BME280;27787;44.594;11.046;2023-05-12T13:31:55;100817.00;;;14.63;100.00
42125;BME280;27787;44.594;11.046;2023-05-12T13:34:40;100814.38;;;14.59;100.00
42125;BME280;27787;44.594;11.046;2023-05-12T13:37:25;100815.25;;;14.58;100.00
42125;BME280;27787;44.594;11.046;2023-05-12T13:40:10;100816.16;;;14.55;100.00
42125;BME280;27787;44.594;11.046;2023-05-12T13:42:54;100822.38;;;14.54;100.00
42125;BME280;27787;44.594;11.046;2023-05-12T13:45:38;100814.38;;;14.57;100.00
42125;BME280;27787;44.594;11.046;2023-05-12T13:48:22;100812.59;;;14.59;100.00
42125;BME280;27787;44.594;11.046;2023-05-12T13:51:06;100812.56;;;14.64;100.00
42125;BME280;27787;44.594;11.046;2023-05-12T13:53:50;100809.88;;;14.67;100.00
42125;BME280;27787;44.594;11.046;2023-05-12T13:56:34;100816.91;;;14.71;100.00
42125;BME280;27787;44.594;11.046;2023-05-12T13:59:18;100824.91;;;14.72;100.00
42125;BME280;27787;44.594;11.046;2023-05-12T14:02:03;100820.41;;;14.78;100.00
42125;BME280;27787;44.594;11.046;2023-05-12T14:04:48;100821.25;;;14.81;100.00
42125;BME280;27787;44.594;11.046;2023-05-12T14:07:32;100825.66;;;14.84;100.00
42125;BME280;27787;44.594;11.046;2023-05-12T14:10:17;100819.47;;;14.85;100.00
42125;BME280;27787;44.594;11.046;2023-05-12T14:13:01;100822.03;;;14.92;100.00
42125;BME280;27787;44.594;11.046;2023-05-12T14:15:45;100817.53;;;15.02;100.00
42125;BME280;27787;44.594;11.046;2023-05-12T14:18:29;100818.31;;;15.10;100.00
42125;BME280;27787;44.594;11.046;2023-05-12T14:21:13;100820.00;;;15.19;100.00
42125;BME280;27787;44.594;11.046;2023-05-12T14:23:57;100819.03;;;15.27;100.00
42125;BME280;27787;44.594;11.046;2023-05-12T14:26:42;100820.66;;;15.41;100.00
42125;BME280;27787;44.594;11.046;2023-05-12T14:29:25;100815.19;;;15.53;100.00
42125;BME280;27787;44.594;11.046;2023-05-12T14:32:09;100821.28;;;15.66;100.00
42125;BME280;27787;44.594;11.046;2023-05-12T14:34:54;100815.75;;;15.81;100.00
42125;BME280;27787;44.594;11.046;2023-05-12T14:37:38;100818.25;;;15.93;100.00
42125;BME280;27787;44.594;11.046;2023-05-12T14:40:23;100802.13;;;16.04;100.00
42125;BME280;27787;44.594;11.046;2023-05-12T14:43:07;100799.28;;;16.14;97.59
42125;BME280;27787;44.594;11.046;2023-05-12T14:45:51;100786.59;;;16.32;96.40
42125;BME280;27787;44.594;11.046;2023-05-12T14:48:37;100790.78;;;16.48;94.21
42125;BME280;27787;44.594;11.046;2023-05-12T14:51:21;100792.28;;;16.63;93.47
42125;BME280;27787;44.594;11.046;2023-05-12T14:54:06;100791.25;;;16.74;93.07
42125;BME280;27787;44.594;11.046;2023-05-12T14:56:51;100791.09;;;16.84;91.52
42125;BME280;27787;44.594;11.046;2023-05-12T14:59:35;100785.63;;;16.90;91.23
42125;BME280;27787;44.594;11.046;2023-05-12T15:02:20;100787.28;;;16.97;91.34
42125;BME280;27787;44.594;11.046;2023-05-12T15:05:05;100785.34;;;17.05;90.16
42125;BME280;27787;44.594;11.046;2023-05-12T15:07:50;100776.28;;;17.14;88.73
42125;BME280;27787;44.594;11.046;2023-05-12T15:10:34;100774.28;;;17.26;87.58
42125;BME280;27787;44.594;11.046;2023-05-12T15:13:18;100774.00;;;17.40;87.30
42125;BME280;27787;44.594;11.046;2023-05-12T15:16:03;100771.06;;;17.52;86.46